Terminal Aerodrome Forecast
Issued by NWS Charleston, WV

Current Version | Previous Version | Graphics & Text | Print | Product List | Glossary On
Versions: 1 2 3 4 5 6 7 8 9 10 11 12 13 14 15 16 17 18 19 20 21
000
FTUS41 KRLX 221439 AAA
TAFHTS
TAF AMD
KHTS 221439Z 2215/2312 20006KT P6SM SKC
     FM221800 25008KT P6SM BKN050
     FM230000 25005KT P6SM SCT045
     FM230900 00000KT 6SM BR SCT150=

USA.gov is the U.S. government's official web portal to all federal, state and local government web resources and services.